Time;durP1;ratioP1;P1;durP2;ratioP2;P2;SDS_P1;SDS_P2;PMS_P1;PMS_P2;Temp;Humidity;BMP_temperature;BMP_pressure;BME280_temperature;BME280_humidity;BME280_pressure;Samples;Min_cycle;Max_cycle;Signal;HPM_P1;HPM_P2
2022/06/11 00:00:27;;;;;;;;;;;;;;;23.20;43.48;101658.56;2082824;28;1048;-56
2022/06/11 00:01:35;;;;;;;;;;;;;;;23.20;44.02;101663.09;2082812;28;981;-56
2022/06/11 00:02:36;;;;;;;;;;;;;;;23.18;44.07;101660.41;2082853;28;932;-56
2022/06/11 00:03:36;;;;;;;;;;;;;;;23.18;43.56;101660.41;2082813;28;894;-56
2022/06/11 00:04:39;;;;;;;;;;;;;;;23.18;43.04;101655.00;2082769;28;824;-56
2022/06/11 00:05:39;;;;;;;;;;;;;;;23.18;43.11;101662.25;2081871;28;2306;-56
2022/06/11 00:06:41;;;;;;;;;;;;;;;23.16;44.02;101656.88;2082742;28;808;-56
2022/06/11 00:07:42;;;;;;;;;;;;;;;23.16;43.18;101658.72;2081753;28;1898;-56
2022/06/11 00:08:43;;;;;;;;;;;;;;;23.12;43.96;101655.19;2082681;28;953;-56
2022/06/11 00:09:43;;;;;;;;;;;;;;;23.11;43.32;101653.44;2082736;28;807;-56
2022/06/11 00:10:44;;;;;;;;;;;;;;;23.09;43.72;101655.31;2082657;28;1017;-56
2022/06/11 00:11:44;;;;;;;;;;;;;;;23.06;44.02;101653.59;2082708;28;1021;-56
2022/06/11 00:12:44;;;;;;;;;;;;;;;23.06;44.02;101652.69;2082677;28;1116;-56
2022/06/11 00:13:45;;;;;;;;;;;;;;;23.03;43.96;101658.19;2082708;28;915;-57
2022/06/11 00:14:45;;;;;;;;;;;;;;;23.04;44.69;101662.66;2082700;28;1068;-55
2022/06/11 00:15:46;;;;;;;;;;;;;;;23.02;44.11;101662.72;2082704;28;993;-56
2022/06/11 00:16:46;;;;;;;;;;;;;;;23.02;44.61;101659.13;2082690;28;719;-56
2022/06/11 00:17:46;;;;;;;;;;;;;;;23.01;44.92;101663.66;2082658;28;752;-56
2022/06/11 00:18:47;;;;;;;;;;;;;;;23.02;44.18;101659.13;2082627;28;1063;-56
2022/06/11 00:19:48;;;;;;;;;;;;;;;23.01;45.14;101660.97;2082675;28;1063;-57
2022/06/11 00:20:48;;;;;;;;;;;;;;;23.00;44.92;101664.59;2082684;28;898;-56
2022/06/11 00:21:50;;;;;;;;;;;;;;;23.02;44.59;101661.81;2081514;28;2437;-56
2022/06/11 00:22:51;;;;;;;;;;;;;;;23.00;45.04;101664.59;2074415;28;760;-56
2022/06/11 00:23:51;;;;;;;;;;;;;;;23.00;45.46;101663.69;2074435;28;811;-56
2022/06/11 00:24:52;;;;;;;;;;;;;;;22.99;45.08;101668.22;2074506;28;912;-56
2022/06/11 00:25:52;;;;;;;;;;;;;;;22.99;45.04;101667.31;2091815;28;881;-55
2022/06/11 00:26:54;;;;;;;;;;;;;;;22.99;44.91;101664.63;2091779;28;1055;-56
2022/06/11 00:27:54;;;;;;;;;;;;;;;22.98;45.78;101666.44;2091585;28;1979;-56
2022/06/11 00:28:54;;;;;;;;;;;;;;;22.98;45.65;101662.84;2091788;28;1025;-56
2022/06/11 00:29:54;;;;;;;;;;;;;;;22.97;45.02;101666.47;2091756;28;980;-56
2022/06/11 00:30:54;;;;;;;;;;;;;;;22.97;45.95;101663.78;2091791;28;839;-56
2022/06/11 00:31:55;;;;;;;;;;;;;;;22.96;46.04;101668.31;2091741;28;984;-56
2022/06/11 00:32:55;;;;;;;;;;;;;;;22.94;45.88;101671.06;2091739;28;1021;-56
2022/06/11 00:33:55;;;;;;;;;;;;;;;22.94;46.21;101662.97;2091725;28;858;-56
2022/06/11 00:34:59;;;;;;;;;;;;;;;22.96;45.52;101665.63;2091712;28;1056;-56
2022/06/11 00:35:59;;;;;;;;;;;;;;;22.95;45.49;101663.84;2091742;28;795;-56
2022/06/11 00:36:59;;;;;;;;;;;;;;;22.94;45.53;101665.66;2091691;28;830;-56
2022/06/11 00:38:00;;;;;;;;;;;;;;;22.94;45.61;101672.88;2091705;28;1060;-57
2022/06/11 00:39:01;;;;;;;;;;;;;;;22.94;45.90;101672.88;2091682;28;997;-56
2022/06/11 00:40:01;;;;;;;;;;;;;;;22.93;46.21;101666.59;2096771;28;2429;-56
2022/06/11 00:41:01;;;;;;;;;;;;;;;22.93;46.65;101671.09;2099949;28;985;-56
2022/06/11 00:42:06;;;;;;;;;;;;;;;22.91;46.38;101660.38;2099930;28;874;-56
2022/06/11 00:43:07;;;;;;;;;;;;;;;22.91;46.32;101665.75;2099828;28;2014;-56
2022/06/11 00:44:08;;;;;;;;;;;;;;;22.90;46.34;101661.28;2099885;28;1059;-56
2022/06/11 00:45:14;;;;;;;;;;;;;;;22.91;46.59;101663.06;2099964;28;1172;-56
2022/06/11 00:46:33;;;;;;;;;;;;;;;22.90;46.86;101664.00;2099882;28;783;-56
2022/06/11 00:47:33;;;;;;;;;;;;;;;22.89;46.28;101659.53;2099972;28;783;-56
2022/06/11 00:48:36;;;;;;;;;;;;;;;22.89;46.04;101664.03;2099848;28;1890;-56
2022/06/11 00:49:39;;;;;;;;;;;;;;;22.88;46.70;101660.47;2099872;28;1036;-56
2022/06/11 00:50:42;;;;;;;;;;;;;;;22.88;46.73;101651.44;2099974;28;877;-56
2022/06/11 00:51:42;;;;;;;;;;;;;;;22.88;46.34;101659.56;2099829;28;1238;-56
2022/06/11 00:52:43;;;;;;;;;;;;;;;22.87;45.97;101666.78;2099884;28;836;-56
2022/06/11 00:53:50;;;;;;;;;;;;;;;22.86;46.44;101662.31;2090915;28;1284;-56
2022/06/11 00:55:04;;;;;;;;;;;;;;;22.86;46.14;101656.00;2091735;28;973;-57
2022/06/11 00:56:06;;;;;;;;;;;;;;;22.84;45.73;101661.47;2093642;28;2555;-56
2022/06/11 00:57:07;;;;;;;;;;;;;;;22.84;46.42;101653.38;2091624;28;893;-56
2022/06/11 00:58:13;;;;;;;;;;;;;;;22.84;45.85;101658.78;2091551;28;783;-56
2022/06/11 00:59:15;;;;;;;;;;;;;;;22.84;45.75;101661.47;2091494;28;1254;-56
2022/06/11 01:00:18;;;;;;;;;;;;;;;22.83;45.51;101653.41;2091538;28;795;-56
2022/06/11 01:01:20;;;;;;;;;;;;;;;22.82;45.28;101657.94;2091441;28;1868;-56
2022/06/11 01:02:20;;;;;;;;;;;;;;;22.83;44.85;101659.72;2091527;28;973;-56
2022/06/11 01:03:23;;;;;;;;;;;;;;;22.84;44.59;101655.16;2091527;28;760;-56
2022/06/11 01:04:33;;;;;;;;;;;;;;;22.84;44.76;101656.06;2091353;28;1700;-56
2022/06/11 01:05:35;;;;;;;;;;;;;;;22.84;44.74;101657.88;2091605;28;854;-56
2022/06/11 01:06:51;;;;;;;;;;;;;;;22.85;44.66;101662.34;2091528;28;1033;-56
2022/06/11 01:07:51;;;;;;;;;;;;;;;22.83;44.28;101657.00;2091428;28;1949;-56
2022/06/11 01:28:23;;;;;;;;;;;;;;;22.83;44.22;101653.41;2099159;27;1227892;-56
2022/06/11 01:29:31;;;;;;;;;;;;;;;22.84;44.00;101663.28;2132446;27;1079;-57
2022/06/11 01:30:33;;;;;;;;;;;;;;;22.83;44.37;101659.72;2132476;27;995;-57
2022/06/11 01:31:34;;;;;;;;;;;;;;;22.83;44.96;101653.41;2132418;27;839;-57
2022/06/11 01:32:40;;;;;;;;;;;;;;;22.83;44.00;101657.00;2132408;27;1044;-57
2022/06/11 01:33:50;;;;;;;;;;;;;;;22.83;44.25;101657.00;2132429;27;798;-58
2022/06/11 01:35:03;;;;;;;;;;;;;;;22.83;44.79;101653.41;2132421;27;917;-57
2022/06/11 01:36:06;;;;;;;;;;;;;;;22.83;45.29;101657.00;2132420;27;972;-57
2022/06/11 01:37:09;;;;;;;;;;;;;;;22.82;44.59;101655.22;2132038;27;996;-57
2022/06/11 01:38:27;;;;;;;;;;;;;;;22.82;44.58;101655.22;2132662;27;775;-58
2022/06/11 01:39:30;;;;;;;;;;;;;;;22.82;45.06;101655.22;2132664;27;901;-58
2022/06/11 01:40:35;;;;;;;;;;;;;;;22.82;45.42;101651.63;2132566;27;1047;-58
2022/06/11 01:41:41;;;;;;;;;;;;;;;22.82;45.02;101654.34;2132587;27;799;-58
2022/06/11 01:42:46;;;;;;;;;;;;;;;22.82;45.21;101657.94;2132653;27;952;-58
2022/06/11 01:43:48;;;;;;;;;;;;;;;22.82;45.51;101657.94;2132619;27;905;-58
2022/06/11 01:44:58;;;;;;;;;;;;;;;22.83;45.29;101661.50;2131949;27;2907;-58
2022/06/11 01:46:00;;;;;;;;;;;;;;;22.82;45.67;101652.53;2132615;27;964;-58
2022/06/11 01:47:01;;;;;;;;;;;;;;;22.83;45.00;101653.41;2132429;27;1138;-58
2022/06/11 01:48:03;;;;;;;;;;;;;;;22.82;45.66;101659.72;2132563;27;829;-59
2022/06/11 01:49:22;;;;;;;;;;;;;;;22.82;45.81;101662.44;2132537;27;936;-58
2022/06/11 01:50:24;;;;;;;;;;;;;;;22.82;45.09;101666.03;2132578;27;779;-58
2022/06/11 01:51:30;;;;;;;;;;;;;;;22.81;45.12;101664.28;2132552;27;980;-58
2022/06/11 01:52:46;;;;;;;;;;;;;;;22.82;45.71;101663.34;2132498;27;975;-58
2022/06/11 01:54:09;;;;;;;;;;;;;;;22.81;45.51;101661.56;2132570;27;1039;-58
2022/06/11 01:55:18;;;;;;;;;;;;;;;22.81;46.12;101661.56;2121343;27;1240;-58
2022/06/11 01:56:18;;;;;;;;;;;;;;;22.80;45.68;101663.38;2132574;27;778;-58
2022/06/11 01:57:41;;;;;;;;;;;;;;;22.79;45.76;101664.28;2132480;27;1015;-58
2022/06/11 01:59:09;;;;;;;;;;;;;;;22.80;46.19;101660.66;2132528;27;790;-58
2022/06/11 02:00:15;;;;;;;;;;;;;;;22.81;46.39;101658.88;2131909;27;2572;-58
2022/06/11 02:01:33;;;;;;;;;;;;;;;22.80;46.79;101657.09;2132487;27;798;-58
2022/06/11 02:03:09;;;;;;;;;;;;;;;22.82;47.90;101657.03;2132464;27;1055;-58
2022/06/11 02:04:28;;;;;;;;;;;;;;;22.80;48.06;101651.69;2097661;28;1181;-58
2022/06/11 02:05:31;;;;;;;;;;;;;;;22.79;47.47;101660.72;2097763;28;894;-58
2022/06/11 02:06:33;;;;;;;;;;;;;;;22.79;48.47;101655.31;2097638;28;1111;-58
2022/06/11 02:07:51;;;;;;;;;;;;;;;22.79;48.47;101655.31;2097648;28;1897;-58
2022/06/11 02:09:00;;;;;;;;;;;;;;;22.79;47.72;101652.63;2097702;28;1036;-58
2022/06/11 02:10:29;;;;;;;;;;;;;;;22.80;48.56;101659.78;2097691;28;1040;-58
2022/06/11 02:11:46;;;;;;;;;;;;;;;22.79;48.12;101649.91;2072927;28;1342;-58
2022/06/11 02:12:53;;;;;;;;;;;;;;;22.78;48.16;101646.31;2072923;28;1038;-59
2022/06/11 02:14:03;;;;;;;;;;;;;;;22.78;49.08;101649.03;2073004;28;965;-58
2022/06/11 02:15:21;;;;;;;;;;;;;;;22.78;48.99;101645.44;2072589;28;2697;-58
2022/06/11 02:16:28;;;;;;;;;;;;;;;22.77;49.45;101647.25;2081094;28;1103;-58
2022/06/11 02:17:31;;;;;;;;;;;;;;;22.77;48.68;101643.69;2081128;28;985;-58
2022/06/11 02:18:31;;;;;;;;;;;;;;;22.77;49.18;101649.09;2081049;28;1914;-58
2022/06/11 02:19:36;;;;;;;;;;;;;;;22.75;48.98;101643.72;2081086;28;926;-58
2022/06/11 02:20:48;;;;;;;;;;;;;;;22.78;49.39;101645.44;2081111;28;878;-58
2022/06/11 02:21:52;;;;;;;;;;;;;;;22.77;49.78;101644.53;2081085;28;1405;-58
2022/06/11 02:22:56;;;;;;;;;;;;;;;22.77;49.92;101643.69;2081071;28;1064;-58
2022/06/11 02:23:56;;;;;;;;;;;;;;;22.76;49.82;101648.19;2081119;28;750;-58
2022/06/11 02:25:01;;;;;;;;;;;;;;;22.76;49.93;101650.00;2081095;28;1036;-58
2022/06/11 02:26:04;;;;;;;;;;;;;;;22.74;49.51;101643.78;2081013;28;890;-58
2022/06/11 02:27:09;;;;;;;;;;;;;;;22.73;49.99;101648.28;2080958;28;1898;-58
2022/06/11 02:28:11;;;;;;;;;;;;;;;22.73;49.33;101645.56;2080904;28;1158;-58
2022/06/11 02:29:13;;;;;;;;;;;;;;;22.74;50.04;101654.56;2080975;28;1759;-58
2022/06/11 02:30:16;;;;;;;;;;;;;;;22.72;49.68;101651.91;2081036;28;1008;-58
2022/06/11 02:31:19;;;;;;;;;;;;;;;22.72;49.91;101657.31;2081046;28;713;-58
2022/06/11 02:32:21;;;;;;;;;;;;;;;22.71;49.51;101654.66;2080390;28;2649;-58
2022/06/11 02:33:21;;;;;;;;;;;;;;;22.71;49.26;101649.25;2080967;28;792;-58
2022/06/11 02:34:23;;;;;;;;;;;;;;;22.71;49.34;101654.66;2081033;28;885;-58
2022/06/11 02:35:28;;;;;;;;;;;;;;;22.70;49.85;101652.91;2080957;28;1029;-58
2022/06/11 02:36:30;;;;;;;;;;;;;;;22.69;48.83;101651.13;2080974;28;899;-58
2022/06/11 02:37:30;;;;;;;;;;;;;;;22.68;48.57;101649.34;2080916;28;1220;-58
2022/06/11 02:38:30;;;;;;;;;;;;;;;22.67;49.07;101653.84;2085031;28;1023;-58
2022/06/11 02:39:33;;;;;;;;;;;;;;;22.68;48.13;101649.34;2099784;28;831;-58
2022/06/11 02:40:39;;;;;;;;;;;;;;;22.67;48.19;101651.16;2100214;28;822;-58
2022/06/11 02:41:39;;;;;;;;;;;;;;;22.66;47.94;101657.50;2100188;28;1170;-58
2022/06/11 02:42:39;;;;;;;;;;;;;;;22.65;47.86;101661.16;2100249;28;862;-58
2022/06/11 02:43:40;;;;;;;;;;;;;;;22.65;47.57;101661.16;2100187;28;1060;-58
2022/06/11 02:44:40;;;;;;;;;;;;;;;22.64;46.64;101660.25;2100225;28;890;-58
2022/06/11 02:45:40;;;;;;;;;;;;;;;22.64;46.76;101662.06;2100178;28;1017;-58
2022/06/11 02:46:43;;;;;;;;;;;;;;;22.64;45.96;101653.97;2099431;28;2501;-58
2022/06/11 02:47:44;;;;;;;;;;;;;;;22.65;46.68;101658.44;2100125;28;1910;-58
2022/06/11 02:48:44;;;;;;;;;;;;;;;22.64;46.37;101659.38;2111616;28;909;-58
2022/06/11 02:49:45;;;;;;;;;;;;;;;22.63;46.04;101658.47;2117848;28;1055;-58
2022/06/11 02:50:48;;;;;;;;;;;;;;;22.64;45.07;101652.16;2117835;28;874;-58
2022/06/11 02:51:50;;;;;;;;;;;;;;;22.64;45.35;101654.84;2117822;28;907;-58
2022/06/11 02:52:50;;;;;;;;;;;;;;;22.63;44.93;101654.91;2117829;28;846;-58
2022/06/11 02:53:50;;;;;;;;;;;;;;;22.63;45.70;101658.47;2117813;28;839;-58
2022/06/11 02:54:51;;;;;;;;;;;;;;;22.64;44.86;101662.06;2117789;28;984;-58
2022/06/11 02:55:51;;;;;;;;;;;;;;;22.63;44.69;101663.88;2117795;28;877;-58
2022/06/11 02:56:52;;;;;;;;;;;;;;;22.63;45.13;101653.06;2117799;28;972;-58
2022/06/11 02:57:53;;;;;;;;;;;;;;;22.63;45.34;101661.19;2117816;28;1048;-58
2022/06/11 02:58:53;;;;;;;;;;;;;;;22.63;45.14;101661.19;2117841;28;921;-58
2022/06/11 02:59:54;;;;;;;;;;;;;;;22.64;44.96;101664.78;2117798;28;977;-58
2022/06/11 03:00:54;;;;;;;;;;;;;;;22.63;45.42;101663.88;2117774;28;894;-58
2022/06/11 03:01:54;;;;;;;;;;;;;;;22.64;44.82;101668.34;2117732;28;964;-58
2022/06/11 03:02:54;;;;;;;;;;;;;;;22.64;44.96;101662.06;2117763;28;964;-58
2022/06/11 03:03:55;;;;;;;;;;;;;;;22.64;45.27;101665.66;2119357;27;3716;-58
2022/06/11 03:04:55;;;;;;;;;;;;;;;22.64;45.39;101673.75;2126228;27;845;-58
2022/06/11 03:05:57;;;;;;;;;;;;;;;22.63;45.06;101663.88;2126264;27;872;-58
2022/06/11 03:06:58;;;;;;;;;;;;;;;22.64;45.51;101670.19;2126261;27;886;-58
2022/06/11 03:07:59;;;;;;;;;;;;;;;22.63;45.56;101669.28;2126173;27;1894;-58
2022/06/11 03:08:59;;;;;;;;;;;;;;;22.64;45.29;101665.66;2126185;27;814;-58
2022/06/11 03:09:59;;;;;;;;;;;;;;;22.64;45.56;101665.66;2126253;27;954;-58
2022/06/11 03:11:00;;;;;;;;;;;;;;;22.64;45.32;101676.44;2126163;27;972;-58
2022/06/11 03:12:00;;;;;;;;;;;;;;;22.64;45.82;101675.56;2126178;27;854;-58
2022/06/11 03:13:01;;;;;;;;;;;;;;;22.64;45.01;101676.44;2126183;27;1012;-58
2022/06/11 03:14:01;;;;;;;;;;;;;;;22.63;45.00;101671.97;2126156;27;1000;-58
2022/06/11 03:15:01;;;;;;;;;;;;;;;22.65;45.25;101677.34;2126134;27;984;-58
2022/06/11 03:16:01;;;;;;;;;;;;;;;22.64;45.43;101676.44;2126157;27;980;-58
2022/06/11 03:17:03;;;;;;;;;;;;;;;22.64;45.47;101681.84;2126151;27;957;-58
2022/06/11 03:18:03;;;;;;;;;;;;;;;22.64;45.97;101675.56;2125994;27;1090;-58
2022/06/11 03:19:04;;;;;;;;;;;;;;;22.64;45.33;101675.56;2126145;27;984;-58
2022/06/11 03:20:06;;;;;;;;;;;;;;;22.64;45.90;101675.56;2125170;27;2530;-58
2022/06/11 03:21:06;;;;;;;;;;;;;;;22.64;46.26;101683.69;2126138;27;794;-58
2022/06/11 03:22:07;;;;;;;;;;;;;;;22.64;46.07;101679.16;2126091;27;972;-58
2022/06/11 03:23:08;;;;;;;;;;;;;;;22.64;46.27;101679.16;2126189;27;845;-58
2022/06/11 03:24:08;;;;;;;;;;;;;;;22.63;46.36;101680.06;2126073;27;1199;-58
2022/06/11 03:25:09;;;;;;;;;;;;;;;22.64;46.45;101680.97;2126108;27;771;-58
2022/06/11 03:26:09;;;;;;;;;;;;;;;22.63;46.04;101677.38;2126073;27;779;-58
2022/06/11 03:27:09;;;;;;;;;;;;;;;22.63;45.90;101671.09;2126040;27;1897;-58
2022/06/11 03:28:12;;;;;;;;;;;;;;;22.63;46.79;101679.22;2125909;27;1152;-58
2022/06/11 03:29:13;;;;;;;;;;;;;;;22.63;46.37;101680.06;2126017;27;992;-58
2022/06/11 03:30:14;;;;;;;;;;;;;;;22.63;46.84;101679.22;2126049;27;858;-58
2022/06/11 03:31:14;;;;;;;;;;;;;;;22.63;45.99;101679.22;2126060;27;791;-58
2022/06/11 03:32:15;;;;;;;;;;;;;;;22.62;46.79;101686.41;2126011;27;869;-58
2022/06/11 03:33:15;;;;;;;;;;;;;;;22.63;46.93;101687.31;2126046;27;1013;-58
2022/06/11 03:34:15;;;;;;;;;;;;;;;22.63;46.23;101682.78;2126017;27;1024;-58
2022/06/11 03:35:15;;;;;;;;;;;;;;;22.62;46.82;101683.72;2125960;27;767;-58
2022/06/11 03:36:17;;;;;;;;;;;;;;;22.63;46.26;101681.91;2122348;27;2540;-58
2022/06/11 03:37:18;;;;;;;;;;;;;;;22.63;45.86;101679.22;2117509;28;1035;-58
2022/06/11 03:38:19;;;;;;;;;;;;;;;22.61;46.22;101684.63;2117440;28;818;-58
2022/06/11 03:39:20;;;;;;;;;;;;;;;22.62;45.64;101688.25;2117458;28;902;-58
2022/06/11 03:40:20;;;;;;;;;;;;;;;22.62;45.94;101689.09;2117491;28;843;-58
2022/06/11 03:41:23;;;;;;;;;;;;;;;22.63;45.48;101690.00;2117431;28;976;-58
2022/06/11 03:42:24;;;;;;;;;;;;;;;22.63;45.67;101690.00;2117431;28;909;-58
2022/06/11 03:43:24;;;;;;;;;;;;;;;22.62;45.03;101690.94;2117384;28;1017;-58
2022/06/11 03:44:24;;;;;;;;;;;;;;;22.62;45.48;101689.09;2108315;28;864;-58
2022/06/11 03:45:25;;;;;;;;;;;;;;;22.62;45.38;101694.50;2108418;28;786;-58
2022/06/11 03:46:25;;;;;;;;;;;;;;;22.63;44.55;101698.09;2117392;28;972;-58
2022/06/11 03:47:25;;;;;;;;;;;;;;;22.62;44.43;101699.03;2117337;28;1913;-58
2022/06/11 03:48:28;;;;;;;;;;;;;;;22.62;44.88;101697.22;2117421;28;877;-58
2022/06/11 03:49:29;;;;;;;;;;;;;;;22.63;44.44;101695.41;2117429;28;861;-58
2022/06/11 03:50:31;;;;;;;;;;;;;;;22.63;45.08;101698.97;2116952;28;953;-58
2022/06/11 03:51:31;;;;;;;;;;;;;;;22.63;45.14;101698.09;2116888;28;845;-58
2022/06/11 03:52:31;;;;;;;;;;;;;;;22.63;44.59;101698.09;2121760;27;3232;-58
2022/06/11 03:53:32;;;;;;;;;;;;;;;22.63;44.98;101704.38;2125843;27;1036;-58
2022/06/11 03:54:32;;;;;;;;;;;;;;;22.62;44.28;101696.34;2125861;27;786;-58
2022/06/11 03:55:32;;;;;;;;;;;;;;;22.63;44.53;101700.81;2125806;27;1043;-58
2022/06/11 03:56:33;;;;;;;;;;;;;;;22.63;44.75;101700.81;2125802;27;996;-58
2022/06/11 03:57:34;;;;;;;;;;;;;;;22.62;45.11;101705.31;2125797;27;1035;-58
2022/06/11 03:58:35;;;;;;;;;;;;;;;22.64;44.36;101705.28;2125813;27;792;-58
2022/06/11 03:59:35;;;;;;;;;;;;;;;22.63;44.61;101704.38;2125822;27;936;-58
2022/06/11 04:01:55;;;;;;;;;;;;;;;22.68;45.16;101704.22;2125948;27;660;-58
2022/06/11 04:02:55;;;;;;;;;;;;;;;23.84;42.55;101700.69;2125825;27;838;-58
2022/06/11 04:03:58;;;;;;;;;;;;;;;24.57;40.75;101697.28;2125750;27;846;-57
2022/06/11 04:04:58;;;;;;;;;;;;;;;25.08;39.44;101698.06;2116571;28;940;-56
2022/06/11 04:05:58;;;;;;;;;;;;;;;25.41;37.96;101692.25;2116606;28;2283;-56
2022/06/11 04:06:59;;;;;;;;;;;;;;;25.78;37.33;101692.59;2125172;27;873;-56
2022/06/11 04:07:59;;;;;;;;;;;;;;;25.97;37.52;101691.78;2117795;27;2447;-56
2022/06/11 04:09:00;;;;;;;;;;;;;;;26.12;37.23;101692.97;2117228;28;952;-56
2022/06/11 04:10:00;;;;;;;;;;;;;;;26.22;36.89;101696.19;2117298;28;786;-55
2022/06/11 04:11:01;;;;;;;;;;;;;;;26.48;36.04;101693.19;2117203;28;909;-56
2022/06/11 04:12:02;;;;;;;;;;;;;;;26.63;35.42;101697.03;2117234;28;851;-56
2022/06/11 04:13:03;;;;;;;;;;;;;;;26.84;35.15;101693.44;2108093;28;1330;-57
2022/06/11 04:14:03;;;;;;;;;;;;;;;26.96;35.21;101687.41;2108078;28;1004;-57
2022/06/11 04:15:04;;;;;;;;;;;;;;;27.20;34.58;101689.91;2117128;28;795;-57
2022/06/11 04:16:04;;;;;;;;;;;;;;;27.27;34.36;101685.91;2117143;28;1047;-57
2022/06/11 04:17:06;;;;;;;;;;;;;;;27.69;34.26;101686.63;2117118;28;1035;-57
2022/06/11 04:18:07;;;;;;;;;;;;;;;27.79;33.48;101687.91;2117093;28;1044;-57
2022/06/11 04:19:11;;;;;;;;;;;;;;;27.98;33.20;101686.94;2117162;28;885;-57
2022/06/11 04:20:11;;;;;;;;;;;;;;;27.90;34.02;101684.63;2117142;28;1059;-57
2022/06/11 04:21:12;;;;;;;;;;;;;;;28.15;32.85;101683.41;2117146;28;993;-57
2022/06/11 04:22:12;;;;;;;;;;;;;;;28.17;32.92;101683.31;2117140;28;992;-57
2022/06/11 04:23:12;;;;;;;;;;;;;;;28.24;33.18;101688.38;2117131;28;1016;-57
2022/06/11 04:24:13;;;;;;;;;;;;;;;28.50;32.78;101682.47;2117093;28;993;-57
2022/06/11 04:25:14;;;;;;;;;;;;;;;28.56;32.93;101684.84;2116533;28;2706;-57
2022/06/11 04:26:18;;;;;;;;;;;;;;;28.66;32.02;101682.50;2117108;28;892;-57
2022/06/11 04:27:19;;;;;;;;;;;;;;;28.69;32.42;101683.19;2116990;28;1894;-57
2022/06/11 04:28:19;;;;;;;;;;;;;;;28.61;32.37;101690.06;2117057;28;1005;-57
2022/06/11 04:29:21;;;;;;;;;;;;;;;28.73;32.54;101685.75;2117024;28;850;-57
2022/06/11 04:30:23;;;;;;;;;;;;;;;28.73;31.99;101683.94;2117045;28;1027;-57
2022/06/11 04:31:24;;;;;;;;;;;;;;;29.21;31.25;101688.56;2116992;28;858;-57
2022/06/11 04:32:25;;;;;;;;;;;;;;;29.51;30.98;101688.69;2117034;28;771;-57
2022/06/11 04:33:25;;;;;;;;;;;;;;;29.78;31.16;101681.69;2117043;28;832;-57
2022/06/11 04:34:26;;;;;;;;;;;;;;;30.06;30.88;101691.84;2116981;28;898;-57
2022/06/11 04:35:27;;;;;;;;;;;;;;;30.55;29.92;101687.91;2117018;28;932;-57
2022/06/11 04:36:28;;;;;;;;;;;;;;;30.64;30.09;101691.06;2116981;28;1056;-57
2022/06/11 04:37:29;;;;;;;;;;;;;;;30.66;30.16;101691.84;2116938;28;1291;-57
2022/06/11 04:38:29;;;;;;;;;;;;;;;30.93;30.07;101691.91;2117036;28;830;-57
2022/06/11 04:39:31;;;;;;;;;;;;;;;31.11;30.09;101689.84;2116965;28;975;-57
2022/06/11 04:40:32;;;;;;;;;;;;;;;31.06;30.28;101692.00;2116953;28;810;-57
2022/06/11 04:41:32;;;;;;;;;;;;;;;31.13;30.02;101682.44;2116388;28;2996;-57
2022/06/11 04:42:32;;;;;;;;;;;;;;;31.27;30.28;101687.00;2116980;28;806;-57
2022/06/11 04:43:32;;;;;;;;;;;;;;;31.48;29.96;101681.97;2116951;28;882;-57
2022/06/11 04:44:32;;;;;;;;;;;;;;;31.43;29.52;101684.13;2116921;28;882;-57
2022/06/11 04:45:33;;;;;;;;;;;;;;;31.34;29.89;101685.63;2107801;28;949;-57
2022/06/11 04:46:33;;;;;;;;;;;;;;;31.53;29.68;101678.88;2107925;28;802;-57
2022/06/11 04:47:33;;;;;;;;;;;;;;;31.37;29.83;101691.88;2116840;28;1909;-57
2022/06/11 04:48:34;;;;;;;;;;;;;;;31.31;29.87;101680.34;2116900;28;774;-57
2022/06/11 04:49:34;;;;;;;;;;;;;;;31.26;29.86;101679.78;2116858;28;937;-57
2022/06/11 04:50:35;;;;;;;;;;;;;;;31.53;29.92;101678.03;2116850;28;992;-57
2022/06/11 04:51:35;;;;;;;;;;;;;;;31.46;29.63;101678.44;2116894;28;981;-57
2022/06/11 04:52:35;;;;;;;;;;;;;;;31.77;29.21;101679.13;2116869;28;803;-57
2022/06/11 04:53:35;;;;;;;;;;;;;;;31.74;29.33;101679.34;2116850;28;885;-57
2022/06/11 04:54:35;;;;;;;;;;;;;;;31.98;28.78;101683.22;2116847;28;1048;-57
2022/06/11 04:55:35;;;;;;;;;;;;;;;32.06;28.87;101678.97;2116860;28;796;-57
2022/06/11 04:56:36;;;;;;;;;;;;;;;31.99;28.83;101666.66;2116859;28;898;-57
2022/06/11 04:57:36;;;;;;;;;;;;;;;31.76;28.89;101676.50;2116866;28;1048;-57
2022/06/11 04:58:36;;;;;;;;;;;;;;;31.67;29.50;101675.25;2116807;28;802;-57
2022/06/11 04:59:36;;;;;;;;;;;;;;;31.90;28.93;101676.41;2116335;28;2952;-57
2022/06/11 05:00:36;;;;;;;;;;;;;;;31.85;29.11;101672.22;2116821;28;1214;-57
2022/06/11 05:01:37;;;;;;;;;;;;;;;32.00;29.20;101671.16;2116768;28;842;-57
2022/06/11 05:02:37;;;;;;;;;;;;;;;32.16;28.36;101670.09;2116598;28;831;-57
2022/06/11 05:03:38;;;;;;;;;;;;;;;32.10;28.81;101665.91;2116781;28;1004;-57
2022/06/11 05:04:38;;;;;;;;;;;;;;;32.08;28.68;101674.25;2116828;28;1103;-57
2022/06/11 05:05:38;;;;;;;;;;;;;;;31.94;28.92;101669.75;2116850;28;776;-57
2022/06/11 05:06:41;;;;;;;;;;;;;;;32.08;28.68;101668.78;2116777;28;890;-57
2022/06/11 05:07:42;;;;;;;;;;;;;;;32.01;28.52;101667.44;2116768;28;1886;-57
2022/06/11 05:08:42;;;;;;;;;;;;;;;32.14;28.80;101661.97;2116817;28;711;-57
2022/06/11 05:09:42;;;;;;;;;;;;;;;31.93;29.21;101661.63;2116748;28;1012;-57
2022/06/11 05:10:42;;;;;;;;;;;;;;;32.09;28.61;101659.56;2116754;28;771;-57
2022/06/11 05:11:43;;;;;;;;;;;;;;;32.39;28.16;101660.25;2116792;28;866;-57
2022/06/11 05:12:43;;;;;;;;;;;;;;;32.28;28.39;101666.50;2107659;28;938;-57
2022/06/11 05:13:44;;;;;;;;;;;;;;;32.23;28.21;101664.06;2107779;28;1367;-57
2022/06/11 05:14:44;;;;;;;;;;;;;;;32.35;28.05;101662.38;2116661;28;862;-57
2022/06/11 05:15:46;;;;;;;;;;;;;;;32.17;28.18;101660.88;2107657;28;930;-57
2022/06/11 05:16:47;;;;;;;;;;;;;;;32.06;28.50;101661.66;2107923;28;1095;-57
2022/06/11 05:17:47;;;;;;;;;;;;;;;32.19;27.96;101661.66;2123282;27;3913;-58
2022/06/11 05:18:47;;;;;;;;;;;;;;;32.26;28.13;101662.09;2125185;27;798;-57
2022/06/11 05:19:47;;;;;;;;;;;;;;;31.95;28.43;101656.91;2125227;27;969;-57
2022/06/11 05:20:48;;;;;;;;;;;;;;;32.17;28.13;101660.88;2125231;27;791;-58
2022/06/11 05:21:49;;;;;;;;;;;;;;;32.17;27.50;101660.88;2125235;27;968;-57
2022/06/11 05:22:49;;;;;;;;;;;;;;;32.28;27.54;101665.59;2125205;27;885;-57
2022/06/11 05:23:50;;;;;;;;;;;;;;;32.30;27.18;101664.56;2121501;27;2746;-57
2022/06/11 05:24:50;;;;;;;;;;;;;;;32.15;27.67;101657.38;2116724;28;937;-57
2022/06/11 05:25:50;;;;;;;;;;;;;;;32.23;27.10;101652.25;2116600;28;1020;-57
2022/06/11 05:26:55;;;;;;;;;;;;;;;32.24;27.09;101656.72;2116651;28;985;-57
2022/06/11 05:27:55;;;;;;;;;;;;;;;32.20;26.82;101661.53;2116552;28;1931;-57
2022/06/11 05:28:55;;;;;;;;;;;;;;;32.21;26.80;101660.56;2116699;28;1025;-57
2022/06/11 05:30:03;;;;;;;;;;;;;;;32.14;26.89;101656.50;2116670;28;1035;-57
2022/06/11 05:31:03;;;;;;;;;;;;;;;32.43;26.80;101652.69;2116702;28;893;-57
2022/06/11 05:32:04;;;;;;;;;;;;;;;32.46;26.03;101660.69;2116714;28;838;-58
2022/06/11 05:33:04;;;;;;;;;;;;;;;32.42;26.23;101659.16;2116706;28;1166;-57
2022/06/11 05:34:04;;;;;;;;;;;;;;;32.44;25.81;101662.66;2116673;28;790;-58
2022/06/11 05:35:07;;;;;;;;;;;;;;;32.42;26.16;101668.28;2116677;28;771;-58
2022/06/11 05:36:07;;;;;;;;;;;;;;;32.27;26.22;101663.84;2116489;28;1959;-57
2022/06/11 05:37:07;;;;;;;;;;;;;;;32.27;26.23;101663.84;2116697;28;972;-57
2022/06/11 05:38:09;;;;;;;;;;;;;;;32.08;26.42;101668.78;2116646;28;841;-57
2022/06/11 05:39:09;;;;;;;;;;;;;;;32.50;25.80;101664.97;2116687;28;869;-57
2022/06/11 05:40:09;;;;;;;;;;;;;;;32.42;25.86;101660.06;2116642;28;1028;-57
2022/06/11 05:41:10;;;;;;;;;;;;;;;32.46;25.74;101664.31;2116764;28;787;-57
2022/06/11 05:42:10;;;;;;;;;;;;;;;32.53;25.84;101667.50;2116684;28;973;-57
2022/06/11 05:43:11;;;;;;;;;;;;;;;32.40;25.92;101661.13;2116680;28;784;-57
2022/06/11 05:44:11;;;;;;;;;;;;;;;32.27;26.13;101666.59;2107592;28;1016;-57
2022/06/11 05:45:12;;;;;;;;;;;;;;;32.51;25.65;101663.97;2107612;28;1048;-58
2022/06/11 05:46:14;;;;;;;;;;;;;;;32.74;25.31;101673.28;2116625;28;854;-57
2022/06/11 05:47:17;;;;;;;;;;;;;;;32.64;25.72;101670.34;2116552;28;1978;-57
2022/06/11 05:48:19;;;;;;;;;;;;;;;32.42;25.81;101664.63;2116603;28;766;-58